Rockwood, Tennessee
Current Conditions -  °F | °C
As of 3:53 AM on Saturday 20 Dec 2014 (Local Time) from KCSV Reporting Station
Overcast Overcast  
Wind Chill: 34°   Ceiling: 5500
Heat Index: 34°   Visibility: 8mi
Dew Point: 28°   Wind: 0mph
Humidity: 79%   Direction: NA
Pressure: 30.14"   Gusts: NA
Location:  35.87°N, 84.68°W
Report Text: KCSV 200853Z AUTO 00000KT 8SM OVC055 01/M02 A3014 RMK AO2 UPB32E38SNB05E32 SLP215 P0002 60002 T00111022 58002
Loading
Personal Weather Stations






























Interactive Weather Map New forecast layout! Learn more

10-Day Weather Forecast

Advertisements
Track Severe Weather on mobile